sensor_id;sensor_type;location;lat;lon;timestamp;pressure;altitude;pressure_sealevel;temperature;humidity
10587;BME280;5341;47.606;7.576;2023-05-10T00:02:03;98411.41;;;18.90;62.47
10587;BME280;5341;47.606;7.576;2023-05-10T00:04:30;98404.31;;;18.89;62.42
10587;BME280;5341;47.606;7.576;2023-05-10T00:06:58;98397.25;;;18.88;62.53
10587;BME280;5341;47.606;7.576;2023-05-10T00:09:25;98399.75;;;18.90;62.45
10587;BME280;5341;47.606;7.576;2023-05-10T00:11:53;98395.97;;;18.91;62.48
10587;BME280;5341;47.606;7.576;2023-05-10T00:14:22;98391.03;;;18.88;62.31
10587;BME280;5341;47.606;7.576;2023-05-10T00:16:49;98392.66;;;18.89;62.43
10587;BME280;5341;47.606;7.576;2023-05-10T00:19:17;98384.53;;;18.89;62.46
10587;BME280;5341;47.606;7.576;2023-05-10T00:21:44;98395.16;;;18.90;62.49
10587;BME280;5341;47.606;7.576;2023-05-10T00:24:11;98391.84;;;18.88;62.53
10587;BME280;5341;47.606;7.576;2023-05-10T00:26:38;98383.72;;;18.88;62.58
10587;BME280;5341;47.606;7.576;2023-05-10T00:29:08;98383.72;;;18.88;62.44
10587;BME280;5341;47.606;7.576;2023-05-10T00:31:37;98387.25;;;18.89;62.33
10587;BME280;5341;47.606;7.576;2023-05-10T00:34:04;98382.31;;;18.86;62.21
10587;BME280;5341;47.606;7.576;2023-05-10T00:36:31;98376.91;;;18.86;62.30
10587;BME280;5341;47.606;7.576;2023-05-10T00:38:59;98386.34;;;18.83;62.21
10587;BME280;5341;47.606;7.576;2023-05-10T00:41:26;98382.81;;;18.83;62.13
10587;BME280;5341;47.606;7.576;2023-05-10T00:43:54;98389.31;;;18.82;62.17
10587;BME280;5341;47.606;7.576;2023-05-10T00:46:22;98392.00;;;18.82;62.40
10587;BME280;5341;47.606;7.576;2023-05-10T00:48:51;98398.50;;;18.81;62.20
10587;BME280;5341;47.606;7.576;2023-05-10T00:51:19;98408.28;;;18.82;62.41
10587;BME280;5341;47.606;7.576;2023-05-10T00:53:48;98408.28;;;18.82;62.43
10587;BME280;5341;47.606;7.576;2023-05-10T00:56:17;98411.81;;;18.82;62.40
10587;BME280;5341;47.606;7.576;2023-05-10T00:58:46;98409.09;;;18.82;62.36
10587;BME280;5341;47.606;7.576;2023-05-10T01:01:13;98409.91;;;18.83;62.32
10587;BME280;5341;47.606;7.576;2023-05-10T01:03:41;98409.09;;;18.82;62.33
10587;BME280;5341;47.606;7.576;2023-05-10T01:06:10;98413.69;;;18.82;62.29
10587;BME280;5341;47.606;7.576;2023-05-10T01:08:38;98412.88;;;18.81;62.38
10587;BME280;5341;47.606;7.576;2023-05-10T01:11:06;98415.56;;;18.81;62.41
10587;BME280;5341;47.606;7.576;2023-05-10T01:13:36;98407.69;;;18.80;62.27
10587;BME280;5341;47.606;7.576;2023-05-10T01:16:04;98414.19;;;18.79;62.38
10587;BME280;5341;47.606;7.576;2023-05-10T01:18:35;98408.75;;;18.79;62.23
10587;BME280;5341;47.606;7.576;2023-05-10T01:21:17;98419.00;;;18.77;62.16
10587;BME280;5341;47.606;7.576;2023-05-10T01:24:19;98420.88;;;18.76;62.33
10587;BME280;5341;47.606;7.576;2023-05-10T01:30:27;98423.25;;;18.72;62.28
10587;BME280;5341;47.606;7.576;2023-05-10T01:33:01;98428.94;;;18.71;62.31
10587;BME280;5341;47.606;7.576;2023-05-10T01:35:40;98425.66;;;18.69;62.35
10587;BME280;5341;47.606;7.576;2023-05-10T01:38:16;98432.94;;;18.68;62.41
10587;BME280;5341;47.606;7.576;2023-05-10T01:40:54;98432.94;;;18.68;62.54
10587;BME280;5341;47.606;7.576;2023-05-10T01:43:30;98425.66;;;18.69;62.33
10587;BME280;5341;47.606;7.576;2023-05-10T01:46:02;98424.00;;;18.68;62.23
10587;BME280;5341;47.606;7.576;2023-05-10T01:48:41;98428.34;;;18.69;62.29
10587;BME280;5341;47.606;7.576;2023-05-10T01:51:14;98430.00;;;18.70;62.46
10587;BME280;5341;47.606;7.576;2023-05-10T01:53:45;98428.09;;;18.70;62.53
10587;BME280;5341;47.606;7.576;2023-05-10T01:56:14;98437.06;;;18.71;62.44
10587;BME280;5341;47.606;7.576;2023-05-10T01:58:44;98435.41;;;18.70;62.46
10587;BME280;5341;47.606;7.576;2023-05-10T02:01:15;98440.59;;;18.71;62.56
10587;BME280;5341;47.606;7.576;2023-05-10T02:03:46;98436.81;;;18.72;62.35
10587;BME280;5341;47.606;7.576;2023-05-10T02:06:15;98433.03;;;18.73;62.40
10587;BME280;5341;47.606;7.576;2023-05-10T02:08:45;98427.63;;;18.73;62.46
10587;BME280;5341;47.606;7.576;2023-05-10T02:11:13;98428.69;;;18.72;62.54
10587;BME280;5341;47.606;7.576;2023-05-10T02:13:42;98437.63;;;18.73;62.56
10587;BME280;5341;47.606;7.576;2023-05-10T02:16:11;98436.00;;;18.72;62.36
10587;BME280;5341;47.606;7.576;2023-05-10T02:18:40;98443.28;;;18.71;62.27
10587;BME280;5341;47.606;7.576;2023-05-10T02:21:10;98440.59;;;18.71;62.26
10587;BME280;5341;47.606;7.576;2023-05-10T02:23:39;98440.00;;;18.69;62.40
10587;BME280;5341;47.606;7.576;2023-05-10T02:26:08;98441.91;;;18.69;62.36
10587;BME280;5341;47.606;7.576;2023-05-10T02:28:36;98440.25;;;18.68;62.34
10587;BME280;5341;47.606;7.576;2023-05-10T02:31:05;98437.31;;;18.69;62.28
10587;BME280;5341;47.606;7.576;2023-05-10T02:33:38;98439.44;;;18.67;62.28
10587;BME280;5341;47.606;7.576;2023-05-10T02:36:09;98444.84;;;18.67;62.33
10587;BME280;5341;47.606;7.576;2023-05-10T02:38:37;98444.03;;;18.67;62.39
10587;BME280;5341;47.606;7.576;2023-05-10T02:41:05;98447.56;;;18.67;62.37
10587;BME280;5341;47.606;7.576;2023-05-10T02:43:35;98446.75;;;18.67;62.02
10587;BME280;5341;47.606;7.576;2023-05-10T02:46:03;98450.28;;;18.67;62.39
10587;BME280;5341;47.606;7.576;2023-05-10T02:48:30;98456.75;;;18.66;62.33
10587;BME280;5341;47.606;7.576;2023-05-10T02:51:05;98456.75;;;18.66;62.21
10587;BME280;5341;47.606;7.576;2023-05-10T02:53:36;98448.84;;;18.65;62.30
10587;BME280;5341;47.606;7.576;2023-05-10T02:56:10;98450.72;;;18.64;62.31
10587;BME280;5341;47.606;7.576;2023-05-10T02:58:39;98444.72;;;18.62;62.05
10587;BME280;5341;47.606;7.576;2023-05-10T03:01:06;98450.63;;;18.59;62.02
10587;BME280;5341;47.606;7.576;2023-05-10T03:03:34;98448.66;;;18.55;62.02
10587;BME280;5341;47.606;7.576;2023-05-10T03:06:01;98443.22;;;18.55;62.28
10587;BME280;5341;47.606;7.576;2023-05-10T03:08:30;98443.22;;;18.55;62.23
10587;BME280;5341;47.606;7.576;2023-05-10T03:11:14;98451.09;;;18.56;62.26
10587;BME280;5341;47.606;7.576;2023-05-10T03:13:51;98445.94;;;18.55;62.31
10587;BME280;5341;47.606;7.576;2023-05-10T03:16:28;98458.41;;;18.56;62.33
10587;BME280;5341;47.606;7.576;2023-05-10T03:19:01;98463.00;;;18.55;62.27
10587;BME280;5341;47.606;7.576;2023-05-10T03:21:29;98453.81;;;18.56;62.15
10587;BME280;5341;47.606;7.576;2023-05-10T03:23:59;98454.88;;;18.55;62.34
10587;BME280;5341;47.606;7.576;2023-05-10T03:26:29;98453.00;;;18.56;62.20
10587;BME280;5341;47.606;7.576;2023-05-10T03:29:07;98453.81;;;18.56;62.13
10587;BME280;5341;47.606;7.576;2023-05-10T03:31:35;98463.00;;;18.55;62.09
10587;BME280;5341;47.606;7.576;2023-05-10T03:34:03;98454.06;;;18.55;62.12
10587;BME280;5341;47.606;7.576;2023-05-10T03:36:30;98454.88;;;18.55;62.14
10587;BME280;5341;47.606;7.576;2023-05-10T03:38:58;98461.38;;;18.54;62.28
10587;BME280;5341;47.606;7.576;2023-05-10T03:41:26;98451.34;;;18.55;62.14
10587;BME280;5341;47.606;7.576;2023-05-10T03:43:55;98445.94;;;18.55;62.07
10587;BME280;5341;47.606;7.576;2023-05-10T03:46:22;98446.75;;;18.55;62.13
10587;BME280;5341;47.606;7.576;2023-05-10T03:48:49;98447.81;;;18.54;62.02
10587;BME280;5341;47.606;7.576;2023-05-10T03:51:17;98438.03;;;18.53;62.00
10587;BME280;5341;47.606;7.576;2023-05-10T03:53:45;98443.69;;;18.52;61.97
10587;BME280;5341;47.606;7.576;2023-05-10T03:56:12;98442.88;;;18.51;62.01
10587;BME280;5341;47.606;7.576;2023-05-10T03:58:39;98442.03;;;18.51;61.92
10587;BME280;5341;47.606;7.576;2023-05-10T04:01:08;98434.97;;;18.50;61.91
10587;BME280;5341;47.606;7.576;2023-05-10T04:03:36;98434.16;;;18.49;62.00
10587;BME280;5341;47.606;7.576;2023-05-10T04:06:05;98433.34;;;18.49;61.99
10587;BME280;5341;47.606;7.576;2023-05-10T04:08:34;98441.72;;;18.47;62.02
10587;BME280;5341;47.606;7.576;2023-05-10T04:11:06;98443.59;;;18.47;61.84
10587;BME280;5341;47.606;7.576;2023-05-10T04:13:34;98465.50;;;18.45;61.78
10587;BME280;5341;47.606;7.576;2023-05-10T04:16:01;98466.56;;;18.44;61.89
10587;BME280;5341;47.606;7.576;2023-05-10T04:18:30;98470.34;;;18.43;61.74
10587;BME280;5341;47.606;7.576;2023-05-10T04:20:58;98472.22;;;18.42;61.75
10587;BME280;5341;47.606;7.576;2023-05-10T04:23:25;98476.81;;;18.42;61.79
10587;BME280;5341;47.606;7.576;2023-05-10T04:25:59;98475.16;;;18.41;61.69
10587;BME280;5341;47.606;7.576;2023-05-10T04:28:26;98481.63;;;18.40;61.86
10587;BME280;5341;47.606;7.576;2023-05-10T04:31:00;98481.88;;;18.38;61.83
10587;BME280;5341;47.606;7.576;2023-05-10T04:33:29;98485.88;;;18.36;61.70
10587;BME280;5341;47.606;7.576;2023-05-10T04:35:57;98486.38;;;18.33;61.67
10587;BME280;5341;47.606;7.576;2023-05-10T04:38:24;98490.25;;;18.25;61.48
10587;BME280;5341;47.606;7.576;2023-05-10T04:40:52;98493.13;;;18.19;61.79
10587;BME280;5341;47.606;7.576;2023-05-10T04:43:20;98499.59;;;18.18;61.79
10587;BME280;5341;47.606;7.576;2023-05-10T04:45:47;98498.72;;;18.17;61.90
10587;BME280;5341;47.606;7.576;2023-05-10T04:48:15;98488.75;;;18.18;62.03
10587;BME280;5341;47.606;7.576;2023-05-10T04:50:44;98486.88;;;18.18;62.15
10587;BME280;5341;47.606;7.576;2023-05-10T04:53:12;98488.75;;;18.18;62.05
10587;BME280;5341;47.606;7.576;2023-05-10T04:55:39;98498.53;;;18.19;62.09
10587;BME280;5341;47.606;7.576;2023-05-10T04:58:06;98497.72;;;18.18;62.20
10587;BME280;5341;47.606;7.576;2023-05-10T05:00:34;98509.34;;;18.19;62.13
10587;BME280;5341;47.606;7.576;2023-05-10T05:03:01;98503.13;;;18.18;62.06
10587;BME280;5341;47.606;7.576;2023-05-10T05:05:29;98508.28;;;18.20;62.04
10587;BME280;5341;47.606;7.576;2023-05-10T05:07:57;98508.28;;;18.20;62.07
10587;BME280;5341;47.606;7.576;2023-05-10T05:10:25;98515.34;;;18.21;61.87
10587;BME280;5341;47.606;7.576;2023-05-10T05:12:52;98513.69;;;18.20;62.02
10587;BME280;5341;47.606;7.576;2023-05-10T05:15:19;98528.28;;;18.19;61.97
10587;BME280;5341;47.606;7.576;2023-05-10T05:17:47;98525.59;;;18.19;61.95
10587;BME280;5341;47.606;7.576;2023-05-10T05:20:14;98535.34;;;18.20;62.19
10587;BME280;5341;47.606;7.576;2023-05-10T05:22:41;98525.81;;;18.17;62.22
10587;BME280;5341;47.606;7.576;2023-05-10T05:25:10;98530.63;;;18.15;62.09
10587;BME280;5341;47.606;7.576;2023-05-10T05:27:38;98530.88;;;18.13;61.94
10587;BME280;5341;47.606;7.576;2023-05-10T05:30:06;98534.88;;;18.11;62.04
10587;BME280;5341;47.606;7.576;2023-05-10T05:32:34;98525.59;;;18.07;62.09
10587;BME280;5341;47.606;7.576;2023-05-10T05:35:02;98535.00;;;18.04;62.44
10587;BME280;5341;47.606;7.576;2023-05-10T05:37:29;98528.75;;;18.04;62.25
10587;BME280;5341;47.606;7.576;2023-05-10T05:39:57;98542.28;;;18.04;62.42
10587;BME280;5341;47.606;7.576;2023-05-10T05:42:25;98544.66;;;18.00;62.46
10587;BME280;5341;47.606;7.576;2023-05-10T05:44:53;98552.19;;;17.98;62.57
10587;BME280;5341;47.606;7.576;2023-05-10T05:47:20;98555.94;;;17.97;62.47
10587;BME280;5341;47.606;7.576;2023-05-10T05:49:47;98558.66;;;17.97;62.71
10587;BME280;5341;47.606;7.576;2023-05-10T05:52:15;98559.72;;;17.96;62.61
10587;BME280;5341;47.606;7.576;2023-05-10T05:54:42;98556.78;;;17.98;62.56
10587;BME280;5341;47.606;7.576;2023-05-10T05:57:09;98563.81;;;17.99;62.73
10587;BME280;5341;47.606;7.576;2023-05-10T05:59:38;98560.53;;;17.97;62.93
10587;BME280;5341;47.606;7.576;2023-05-10T06:02:09;98565.13;;;17.96;62.84
10587;BME280;5341;47.606;7.576;2023-05-10T06:04:37;98567.25;;;17.94;63.03
10587;BME280;5341;47.606;7.576;2023-05-10T06:07:04;98569.13;;;17.94;62.74
10587;BME280;5341;47.606;7.576;2023-05-10T06:09:31;98567.94;;;17.90;62.74
10587;BME280;5341;47.606;7.576;2023-05-10T06:11:59;98572.75;;;17.88;62.69
10587;BME280;5341;47.606;7.576;2023-05-10T06:14:27;98578.66;;;17.84;63.01
10587;BME280;5341;47.606;7.576;2023-05-10T06:16:56;98581.34;;;17.84;63.03
10587;BME280;5341;47.606;7.576;2023-05-10T06:19:25;98590.38;;;17.78;63.30
10587;BME280;5341;47.606;7.576;2023-05-10T06:21:53;98589.44;;;17.73;63.26
10587;BME280;5341;47.606;7.576;2023-05-10T06:24:20;98595.91;;;17.72;63.63
10587;BME280;5341;47.606;7.576;2023-05-10T06:26:48;98591.56;;;17.71;63.60
10587;BME280;5341;47.606;7.576;2023-05-10T06:29:16;98594.50;;;17.69;63.55
10587;BME280;5341;47.606;7.576;2023-05-10T06:31:43;98604.84;;;17.72;63.51
10587;BME280;5341;47.606;7.576;2023-05-10T06:34:12;98588.84;;;17.71;63.63
10587;BME280;5341;47.606;7.576;2023-05-10T06:36:39;98607.38;;;17.67;63.56
10587;BME280;5341;47.606;7.576;2023-05-10T06:39:07;98605.97;;;17.65;63.81
10587;BME280;5341;47.606;7.576;2023-05-10T06:41:35;98602.78;;;17.68;64.04
10587;BME280;5341;47.606;7.576;2023-05-10T06:44:02;98609.66;;;17.70;63.86
10587;BME280;5341;47.606;7.576;2023-05-10T06:46:31;98615.09;;;17.70;64.17
10587;BME280;5341;47.606;7.576;2023-05-10T06:48:58;98612.97;;;17.72;63.99
10587;BME280;5341;47.606;7.576;2023-05-10T06:51:27;98615.19;;;17.75;64.09
10587;BME280;5341;47.606;7.576;2023-05-10T06:53:54;98610.97;;;17.79;64.26
10587;BME280;5341;47.606;7.576;2023-05-10T06:56:21;98607.56;;;17.84;64.30
10587;BME280;5341;47.606;7.576;2023-05-10T06:58:49;98606.50;;;17.85;64.25
10587;BME280;5341;47.606;7.576;2023-05-10T07:01:16;98609.56;;;17.89;64.11
10587;BME280;5341;47.606;7.576;2023-05-10T07:03:44;98604.16;;;17.89;63.87
10587;BME280;5341;47.606;7.576;2023-05-10T07:06:11;98626.63;;;17.89;64.01
10587;BME280;5341;47.606;7.576;2023-05-10T07:08:40;98617.19;;;17.80;63.58
10587;BME280;5341;47.606;7.576;2023-05-10T07:11:07;98620.13;;;17.78;63.50
10587;BME280;5341;47.606;7.576;2023-05-10T07:13:36;98617.91;;;17.75;63.69
10587;BME280;5341;47.606;7.576;2023-05-10T07:16:05;98616.16;;;17.81;63.73
10587;BME280;5341;47.606;7.576;2023-05-10T07:18:33;98621.09;;;17.84;63.70
10587;BME280;5341;47.606;7.576;2023-05-10T07:21:00;98622.50;;;17.86;63.16
10587;BME280;5341;47.606;7.576;2023-05-10T07:23:28;98628.28;;;17.90;63.06
10587;BME280;5341;47.606;7.576;2023-05-10T07:25:58;98626.28;;;17.97;63.45
10587;BME280;5341;47.606;7.576;2023-05-10T07:28:26;98639.59;;;17.99;63.32
10587;BME280;5341;47.606;7.576;2023-05-10T07:30:53;98639.94;;;18.02;63.25
10587;BME280;5341;47.606;7.576;2023-05-10T07:33:21;98634.19;;;17.99;63.14
10587;BME280;5341;47.606;7.576;2023-05-10T07:35:48;98637.47;;;18.01;63.27
10587;BME280;5341;47.606;7.576;2023-05-10T07:38:15;98639.69;;;18.04;63.21
10587;BME280;5341;47.606;7.576;2023-05-10T07:40:43;98638.44;;;18.06;63.36
10587;BME280;5341;47.606;7.576;2023-05-10T07:43:11;98635.13;;;18.04;62.79
10587;BME280;5341;47.606;7.576;2023-05-10T07:45:39;98639.13;;;18.02;63.07
10587;BME280;5341;47.606;7.576;2023-05-10T07:48:06;98638.63;;;18.05;62.87
10587;BME280;5341;47.606;7.576;2023-05-10T07:50:34;98633.03;;;18.06;62.80
10587;BME280;5341;47.606;7.576;2023-05-10T07:53:02;98630.19;;;18.13;62.94
10587;BME280;5341;47.606;7.576;2023-05-10T07:55:29;98632.78;;;18.20;62.86
10587;BME280;5341;47.606;7.576;2023-05-10T07:57:57;98645.28;;;18.21;62.70
10587;BME280;5341;47.606;7.576;2023-05-10T08:00:28;98650.44;;;18.22;62.34
10587;BME280;5341;47.606;7.576;2023-05-10T08:02:55;98645.97;;;18.28;62.29
10587;BME280;5341;47.606;7.576;2023-05-10T08:05:23;98652.69;;;18.25;61.59
10587;BME280;5341;47.606;7.576;2023-05-10T08:07:51;98647.84;;;18.15;61.16
10587;BME280;5341;47.606;7.576;2023-05-10T08:10:18;98644.31;;;18.15;61.33
10587;BME280;5341;47.606;7.576;2023-05-10T08:12:45;98654.22;;;18.21;61.63
10587;BME280;5341;47.606;7.576;2023-05-10T08:15:13;98653.25;;;18.27;61.18
10587;BME280;5341;47.606;7.576;2023-05-10T08:17:41;98649.16;;;18.25;61.02
10587;BME280;5341;47.606;7.576;2023-05-10T08:20:10;98650.69;;;18.21;60.76
10587;BME280;5341;47.606;7.576;2023-05-10T08:22:38;98652.91;;;18.24;60.78
10587;BME280;5341;47.606;7.576;2023-05-10T08:25:06;98646.94;;;18.33;61.32
10587;BME280;5341;47.606;7.576;2023-05-10T08:27:34;98644.09;;;18.40;60.99
10587;BME280;5341;47.606;7.576;2023-05-10T08:30:01;98654.81;;;18.47;60.75
10587;BME280;5341;47.606;7.576;2023-05-10T08:32:29;98647.41;;;18.54;60.75
10587;BME280;5341;47.606;7.576;2023-05-10T08:34:58;98646.19;;;18.61;60.56
10587;BME280;5341;47.606;7.576;2023-05-10T08:37:25;98646.47;;;18.71;60.29
10587;BME280;5341;47.606;7.576;2023-05-10T08:39:53;98645.88;;;18.81;59.89
10587;BME280;5341;47.606;7.576;2023-05-10T08:42:22;98648.56;;;18.93;59.24
10587;BME280;5341;47.606;7.576;2023-05-10T08:44:53;98653.25;;;18.97;58.22
10587;BME280;5341;47.606;7.576;2023-05-10T08:47:21;98656.09;;;18.91;57.90
10587;BME280;5341;47.606;7.576;2023-05-10T08:49:49;98660.09;;;18.88;58.03
10587;BME280;5341;47.606;7.576;2023-05-10T08:52:19;98661.16;;;18.87;57.48
10587;BME280;5341;47.606;7.576;2023-05-10T08:54:48;98653.84;;;18.88;56.68
10587;BME280;5341;47.606;7.576;2023-05-10T08:57:16;98662.81;;;18.88;57.19
10587;BME280;5341;47.606;7.576;2023-05-10T08:59:44;98659.41;;;18.93;56.59
10587;BME280;5341;47.606;7.576;2023-05-10T09:02:13;98662.91;;;19.05;57.08
10587;BME280;5341;47.606;7.576;2023-05-10T09:04:40;98667.31;;;19.23;56.71
10587;BME280;5341;47.606;7.576;2023-05-10T09:07:10;98664.56;;;19.35;56.34
10587;BME280;5341;47.606;7.576;2023-05-10T09:09:39;98664.44;;;19.41;56.46
10587;BME280;5341;47.606;7.576;2023-05-10T09:12:07;98662.06;;;19.45;55.78
10587;BME280;5341;47.606;7.576;2023-05-10T09:14:37;98663.38;;;19.42;55.69
10587;BME280;5341;47.606;7.576;2023-05-10T09:17:05;98660.41;;;19.44;55.15
10587;BME280;5341;47.606;7.576;2023-05-10T09:19:33;98649.91;;;19.47;54.80
10587;BME280;5341;47.606;7.576;2023-05-10T09:22:00;98654.59;;;19.64;55.24
10587;BME280;5341;47.606;7.576;2023-05-10T09:24:30;98648.69;;;19.83;54.32
10587;BME280;5341;47.606;7.576;2023-05-10T09:26:59;98662.53;;;19.99;53.61
10587;BME280;5341;47.606;7.576;2023-05-10T09:29:38;98664.28;;;20.05;53.11
10587;BME280;5341;47.606;7.576;2023-05-10T09:32:06;98656.38;;;20.03;53.13
10587;BME280;5341;47.606;7.576;2023-05-10T09:34:33;98662.78;;;19.97;52.72
10587;BME280;5341;47.606;7.576;2023-05-10T09:37:05;98655.50;;;19.86;52.36
10587;BME280;5341;47.606;7.576;2023-05-10T09:39:34;98651.97;;;19.85;52.59
10587;BME280;5341;47.606;7.576;2023-05-10T09:42:05;98650.44;;;19.89;52.18
10587;BME280;5341;47.606;7.576;2023-05-10T09:44:33;98652.09;;;19.90;51.98
10587;BME280;5341;47.606;7.576;2023-05-10T09:47:01;98642.78;;;19.86;51.44
10587;BME280;5341;47.606;7.576;2023-05-10T09:49:29;98636.63;;;19.91;51.93
10587;BME280;5341;47.606;7.576;2023-05-10T09:52:04;98639.19;;;20.14;50.81
10587;BME280;5341;47.606;7.576;2023-05-10T09:54:32;98633.47;;;20.33;50.07
10587;BME280;5341;47.606;7.576;2023-05-10T09:57:00;98628.63;;;20.35;50.10
10587;BME280;5341;47.606;7.576;2023-05-10T09:59:29;98626.50;;;20.37;50.31
10587;BME280;5341;47.606;7.576;2023-05-10T10:01:57;98628.88;;;20.33;49.60
10587;BME280;5341;47.606;7.576;2023-05-10T10:04:26;98636.19;;;20.33;49.75
10587;BME280;5341;47.606;7.576;2023-05-10T10:07:04;98636.19;;;20.33;49.85
10587;BME280;5341;47.606;7.576;2023-05-10T10:09:32;98642.94;;;20.30;50.38
10587;BME280;5341;47.606;7.576;2023-05-10T10:12:00;98639.72;;;20.33;50.42
10587;BME280;5341;47.606;7.576;2023-05-10T10:14:30;98632.25;;;20.40;49.79
10587;BME280;5341;47.606;7.576;2023-05-10T10:17:00;98630.03;;;20.54;50.33
10587;BME280;5341;47.606;7.576;2023-05-10T10:19:28;98632.38;;;20.67;50.47
10587;BME280;5341;47.606;7.576;2023-05-10T10:21:55;98628.56;;;20.85;50.20
10587;BME280;5341;47.606;7.576;2023-05-10T10:24:22;98633.81;;;20.92;49.62
10587;BME280;5341;47.606;7.576;2023-05-10T10:26:52;98631.41;;;20.95;49.34
10587;BME280;5341;47.606;7.576;2023-05-10T10:29:26;98630.56;;;20.95;48.90
10587;BME280;5341;47.606;7.576;2023-05-10T10:32:06;98633.28;;;21.17;48.50
10587;BME280;5341;47.606;7.576;2023-05-10T10:34:36;98627.09;;;21.43;48.99
10587;BME280;5341;47.606;7.576;2023-05-10T10:37:06;98620.34;;;21.73;48.03
10587;BME280;5341;47.606;7.576;2023-05-10T10:39:33;98627.22;;;22.07;47.57
10587;BME280;5341;47.606;7.576;2023-05-10T10:42:03;98621.88;;;22.22;45.92
10587;BME280;5341;47.606;7.576;2023-05-10T10:44:37;98628.41;;;22.21;46.08
10587;BME280;5341;47.606;7.576;2023-05-10T10:50:05;98622.88;;;21.84;45.74
10587;BME280;5341;47.606;7.576;2023-05-10T10:52:34;98626.50;;;21.63;46.30
10587;BME280;5341;47.606;7.576;2023-05-10T10:55:04;98624.75;;;21.52;46.84
10587;BME280;5341;47.606;7.576;2023-05-10T10:57:33;98622.28;;;21.50;46.86
10587;BME280;5341;47.606;7.576;2023-05-10T11:00:20;98616.28;;;21.80;47.15
10587;BME280;5341;47.606;7.576;2023-05-10T11:02:48;98618.28;;;21.90;45.63
10587;BME280;5341;47.606;7.576;2023-05-10T11:08:13;98615.97;;;21.72;44.86
10587;BME280;5341;47.606;7.576;2023-05-10T11:10:49;98619.69;;;21.65;44.48
10587;BME280;5341;47.606;7.576;2023-05-10T11:13:27;98610.38;;;21.56;44.56
10587;BME280;5341;47.606;7.576;2023-05-10T11:15:55;98606.47;;;21.47;44.86
10587;BME280;5341;47.606;7.576;2023-05-10T11:18:26;98616.16;;;21.38;44.57
10587;BME280;5341;47.606;7.576;2023-05-10T11:20:57;98613.00;;;21.24;44.32
10587;BME280;5341;47.606;7.576;2023-05-10T11:23:30;98615.09;;;21.17;45.22
10587;BME280;5341;47.606;7.576;2023-05-10T11:25:59;98611.03;;;21.20;44.64
10587;BME280;5341;47.606;7.576;2023-05-10T11:28:27;98611.03;;;21.20;44.58
10587;BME280;5341;47.606;7.576;2023-05-10T11:30:54;98619.09;;;21.10;44.80
10587;BME280;5341;47.606;7.576;2023-05-10T11:33:22;98618.97;;;20.99;44.53
10587;BME280;5341;47.606;7.576;2023-05-10T11:35:49;98632.16;;;20.91;44.31
10587;BME280;5341;47.606;7.576;2023-05-10T11:38:18;98625.34;;;20.88;45.61
10587;BME280;5341;47.606;7.576;2023-05-10T11:40:45;98623.44;;;20.89;44.89
10587;BME280;5341;47.606;7.576;2023-05-10T11:43:13;98622.06;;;20.86;45.45
10587;BME280;5341;47.606;7.576;2023-05-10T11:45:41;98620.03;;;20.76;44.42
10587;BME280;5341;47.606;7.576;2023-05-10T11:48:08;98617.47;;;20.70;44.95
10587;BME280;5341;47.606;7.576;2023-05-10T11:50:36;98607.44;;;20.70;45.80
10587;BME280;5341;47.606;7.576;2023-05-10T11:53:03;98610.13;;;20.70;45.89
10587;BME280;5341;47.606;7.576;2023-05-10T11:55:34;98619.38;;;20.69;45.93
10587;BME280;5341;47.606;7.576;2023-05-10T11:58:02;98615.09;;;20.73;45.57
10587;BME280;5341;47.606;7.576;2023-05-10T12:00:30;98618.19;;;20.82;45.58
10587;BME280;5341;47.606;7.576;2023-05-10T12:02:59;98616.88;;;20.85;45.10
10587;BME280;5341;47.606;7.576;2023-05-10T12:05:27;98626.59;;;20.81;43.94
10587;BME280;5341;47.606;7.576;2023-05-10T12:08:12;98632.66;;;20.66;44.52
10587;BME280;5341;47.606;7.576;2023-05-10T12:10:42;98627.25;;;20.49;45.19
10587;BME280;5341;47.606;7.576;2023-05-10T12:13:12;98632.19;;;20.35;44.70
10587;BME280;5341;47.606;7.576;2023-05-10T12:15:41;98635.38;;;20.32;45.32
10587;BME280;5341;47.606;7.576;2023-05-10T12:18:09;98634.00;;;20.30;45.07
10587;BME280;5341;47.606;7.576;2023-05-10T12:20:37;98631.78;;;20.27;44.50
10587;BME280;5341;47.606;7.576;2023-05-10T12:23:05;98626.34;;;20.27;44.60
10587;BME280;5341;47.606;7.576;2023-05-10T12:25:34;98634.56;;;20.32;44.43
10587;BME280;5341;47.606;7.576;2023-05-10T12:28:05;98631.44;;;20.40;44.52
10587;BME280;5341;47.606;7.576;2023-05-10T12:30:34;98640.66;;;20.39;43.86
10587;BME280;5341;47.606;7.576;2023-05-10T12:33:06;98634.31;;;20.33;44.10
10587;BME280;5341;47.606;7.576;2023-05-10T12:35:44;98635.22;;;20.39;44.76
10587;BME280;5341;47.606;7.576;2023-05-10T12:38:28;98633.06;;;20.41;45.07
10587;BME280;5341;47.606;7.576;2023-05-10T12:40:57;98636.59;;;20.41;45.04
10587;BME280;5341;47.606;7.576;2023-05-10T12:43:26;98635.56;;;20.42;44.19
10587;BME280;5341;47.606;7.576;2023-05-10T12:45:54;98639.81;;;20.55;43.98
10587;BME280;5341;47.606;7.576;2023-05-10T12:48:21;98641.31;;;20.63;43.29
10587;BME280;5341;47.606;7.576;2023-05-10T12:50:49;98633.53;;;20.71;43.63
10587;BME280;5341;47.606;7.576;2023-05-10T12:53:16;98635.91;;;20.85;43.59
10587;BME280;5341;47.606;7.576;2023-05-10T12:55:44;98631.47;;;21.00;43.30
10587;BME280;5341;47.606;7.576;2023-05-10T12:58:11;98629.16;;;21.09;43.01
10587;BME280;5341;47.606;7.576;2023-05-10T13:00:40;98624.06;;;21.18;43.07
10587;BME280;5341;47.606;7.576;2023-05-10T13:03:07;98632.84;;;21.25;42.99
10587;BME280;5341;47.606;7.576;2023-05-10T13:05:35;98627.03;;;21.16;42.27
10587;BME280;5341;47.606;7.576;2023-05-10T13:08:02;98632.34;;;21.06;41.61
10587;BME280;5341;47.606;7.576;2023-05-10T13:10:31;98628.81;;;21.05;41.72
10587;BME280;5341;47.606;7.576;2023-05-10T13:12:59;98638.88;;;21.05;41.87
10587;BME280;5341;47.606;7.576;2023-05-10T13:15:26;98641.19;;;21.18;41.53
10587;BME280;5341;47.606;7.576;2023-05-10T13:17:55;98635.00;;;21.23;41.18
10587;BME280;5341;47.606;7.576;2023-05-10T13:20:22;98633.56;;;21.15;41.48
10587;BME280;5341;47.606;7.576;2023-05-10T13:22:49;98631.88;;;21.09;41.95
10587;BME280;5341;47.606;7.576;2023-05-10T13:25:17;98626.09;;;21.05;42.76
10587;BME280;5341;47.606;7.576;2023-05-10T13:27:44;98628.25;;;21.03;42.98
10587;BME280;5341;47.606;7.576;2023-05-10T13:30:12;98638.50;;;20.96;42.93